Aeroporto :
LOGIN :

Iscrizione | Disclaimer

   EN    FR    IT 

 










Sommario :    VFR   VFR Marginale   IFR   IFR Intensivo   IFR Molto Intensivo
Visibilità : 
Base nubi : 
>= 8 km
>= 3000ft
5 / 8 km
1000 / 3000 ft
1500m / 5 km
500 / 1000 ft
800 / 1500m
200 / 500 ft
< 800m
< 200 ft
Simboli :   Temporali  Nebbia  Neve Forte  Precipitazioni Forti  Vento > 20 kt
SIGMETs :   Varie  Temporali  Ghiacco  Turbolenza  Onda orograficha  Ceneri Vulcaniche







- Altitudine del aeroporto : 1197 ft
- Codice IATA : SPM


ETAD - Spangdahlem Ab

ULTIMO METAR :
  • 210556Z AUTO 29008KT 9999 OVC010 11/09 A2983 RMK AO2 CIG 008V010 SLP092 T01100093 10117 20107 52010 $

METARs OBSOLETI :
  • 210456Z AUTO 28010KT 9999 OVC008 11/10 A2982 RMK AO2 SLP087 T01080095 $
  • 210426Z AUTO 30010KT 9999 OVC008 11/10 A2982 RMK AO2 SLP088 $
  • 210356Z AUTO 30008KT 9999 OVC007 11/10 A2981 RMK AO2 SLP083 T01070096 $

TAF AMD TAF ETAD
Valido dal 21 a 04 ore il 22 a 10 ore UTC


210452Z 2104/2210 30010G18KT 9999 BKN008 OVC010 QNH2976INS
BECMG 2109/2110 30012G20KT 6000 -RA BKN005 OVC010 620706 QNH2981INS
TEMPO 2110/2116 31015G25KT
BECMG 2119/2120 31010G18KT 6000 -RA BR BKN008 OVC010 620706 QNH2988INS
BECMG 2121/2122 34010KT 6000 -RA BR BKN008 OVC010 620706 QNH2990INS TX15/2115Z TN11/2104Z
Nessun NOTAM noto per questo aeroporto.



MetMap, La meteo Aeronautica in un colpo d'occhio ! - Copyright ORBIFLY Dicembre 2007 - Disclaimer

ORBIFLY MET'MAP TEAM :

Programmazione e sviluppo : Alexandra Zaïnal
Concezione e sviluppo : Baudouin d'Aumeries
Co-Programmazione e sviluppo : Marc-Olivier Méhu
Supporto tecnico e logistico : Manuel Goepfert
Aiuto per la traduzione : Arnaldo La Scala

Contatto : metmap@orbifly.com




FONTI E CREDITI :

   NOAA